Time;durP1;ratioP1;P1;durP2;ratioP2;P2;SDS_P1;SDS_P2;PMS_P1;PMS_P2;Temp;Humidity;BMP_temperature;BMP_pressure;BME280_temperature;BME280_humidity;BME280_pressure;Samples;Min_cycle;Max_cycle;Signal;HPM_P1;HPM_P2
2023/07/18 00:08:49;;;;;;;1999.90;999.90;;;;;;;;;;6668044;88;20187;-78
2023/07/18 00:18:50;;;;;;;1999.90;999.90;;;;;;;;;;6667943;89;20191;-77
2023/07/18 00:28:54;;;;;;;1999.90;999.90;;;;;;;;;;6667769;89;20223;-77
2023/07/18 00:38:55;;;;;;;1999.90;999.90;;;;;;;;;;6667804;89;20786;-76
2023/07/18 00:48:57;;;;;;;1999.90;999.90;;;;;;;;;;6668240;89;20345;-77
2023/07/18 00:58:59;;;;;;;1999.90;999.90;;;;;;;;;;6668263;89;20214;-77
2023/07/18 01:19:42;;;;;;;1999.90;999.90;;;;;;;;;;6708970;88;20219;-79
2023/07/18 01:29:44;;;;;;;1999.90;999.90;;;;;;;;;;6700452;88;20805;-79
2023/07/18 01:39:45;;;;;;;1999.90;999.90;;;;;;;;;;6698655;88;20245;-79
2023/07/18 01:49:46;;;;;;;1999.90;999.90;;;;;;;;;;6700063;88;20250;-79
2023/07/18 01:59:47;;;;;;;1999.90;999.90;;;;;;;;;;6701833;88;20186;-79
2023/07/18 02:09:48;;;;;;;1999.90;999.90;;;;;;;;;;6712319;88;20191;-79
2023/07/18 02:19:49;;;;;;;1999.90;999.90;;;;;;;;;;6706263;88;20207;-80
2023/07/18 02:29:50;;;;;;;1999.90;999.90;;;;;;;;;;6702703;88;20183;-80
2023/07/18 02:39:51;;;;;;;1999.90;999.90;;;;;;;;;;6701794;88;20204;-80
2023/07/18 02:49:52;;;;;;;1999.90;999.90;;;;;;;;;;6702686;88;20171;-80
2023/07/18 02:59:53;;;;;;;1999.90;999.90;;;;;;;;;;6704068;88;20199;-79
2023/07/18 03:09:55;;;;;;;1999.90;999.90;;;;;;;;;;6703925;88;20183;-80
2023/07/18 03:19:56;;;;;;;1999.90;999.90;;;;;;;;;;6702355;88;20214;-79
2023/07/18 03:29:57;;;;;;;1999.90;999.90;;;;;;;;;;6700143;88;20271;-80
2023/07/18 03:39:58;;;;;;;1999.90;999.90;;;;;;;;;;6705445;89;20652;-80
2023/07/18 03:49:59;;;;;;;1999.90;999.90;;;;;;;;;;6705772;89;20211;-79
2023/07/18 04:00:00;;;;;;;1999.90;999.90;;;;;;;;;;6705690;88;20509;-80
2023/07/18 04:10:01;;;;;;;1999.90;999.90;;;;;;;;;;6702894;89;20207;-80
2023/07/18 04:20:04;;;;;;;1999.90;999.90;;;;;;;;;;6711998;88;20199;-81
2023/07/18 04:30:05;;;;;;;1999.90;999.90;;;;;;;;;;6703387;89;20195;-80
2023/07/18 04:40:08;;;;;;;1999.90;999.90;;;;;;;;;;6701974;88;20186;-80
2023/07/18 04:50:10;;;;;;;1999.90;999.90;;;;;;;;;;6700625;88;20252;-80
2023/07/18 05:00:12;;;;;;;1999.90;999.90;;;;;;;;;;6702504;88;20184;-80
2023/07/18 05:10:13;;;;;;;1999.90;999.90;;;;;;;;;;6703198;88;20233;-80
2023/07/18 05:20:14;;;;;;;1999.90;999.90;;;;;;;;;;6705960;88;20225;-80
2023/07/18 05:30:16;;;;;;;1999.90;999.90;;;;;;;;;;6712456;88;20175;-80
2023/07/18 05:40:17;;;;;;;1999.90;999.90;;;;;;;;;;6712789;88;20167;-79
2023/07/18 05:50:18;;;;;;;1999.90;999.90;;;;;;;;;;6716403;88;20655;-79
2023/07/18 06:00:20;;;;;;;1999.90;999.90;;;;;;;;;;6715695;88;20203;-81
2023/07/18 06:10:21;;;;;;;1999.90;999.90;;;;;;;;;;6713525;88;20193;-81
2023/07/18 06:20:24;;;;;;;1999.90;999.90;;;;;;;;;;6707924;88;20266;-80
2023/07/18 06:51:49;;;;;;;1999.90;999.90;;;;;;;;;;6856264;77;20163;-83
2023/07/18 07:01:50;;;;;;;1999.90;999.90;;;;;;;;;;7187156;77;21323;-79
2023/07/18 07:11:51;;;;;;;1999.90;999.90;;;;;;;;;;6740162;88;20240;-78
2023/07/18 07:21:52;;;;;;;1999.90;999.90;;;;;;;;;;6736473;88;20709;-78
2023/07/18 07:31:53;;;;;;;1999.90;999.90;;;;;;;;;;6737071;88;20215;-77
2023/07/18 07:41:54;;;;;;;1999.90;999.90;;;;;;;;;;6746922;88;20212;-76
2023/07/18 07:51:55;;;;;;;1999.90;999.90;;;;;;;;;;6736011;88;20237;-77
2023/07/18 08:01:56;;;;;;;1999.90;999.90;;;;;;;;;;6734294;88;20606;-77
2023/07/18 08:11:58;;;;;;;1999.90;999.90;;;;;;;;;;6734828;88;20278;-78
2023/07/18 08:21:59;;;;;;;1999.90;999.90;;;;;;;;;;6737169;88;20196;-77
2023/07/18 08:32:00;;;;;;;1999.90;999.90;;;;;;;;;;6738902;88;20282;-77
2023/07/18 08:42:04;;;;;;;1999.90;999.90;;;;;;;;;;6751511;88;20211;-77
2023/07/18 08:52:05;;;;;;;;;;;;;;;;;;6737278;88;20196;-77
2023/07/18 09:02:06;;;;;;;1999.90;999.90;;;;;;;;;;6737904;88;20077;-77
2023/07/18 09:12:09;;;;;;;1999.90;999.90;;;;;;;;;;6737206;88;20624;-77
2023/07/18 09:22:11;;;;;;;1999.90;999.90;;;;;;;;;;6736974;88;20696;-77
2023/07/18 09:32:23;;;;;;;1999.90;999.90;;;;;;;;;;6735064;88;20701;-77
2023/07/18 09:42:24;;;;;;;1999.90;999.90;;;;;;;;;;6719814;88;20326;-77
2023/07/18 09:52:27;;;;;;;1999.90;999.90;;;;;;;;;;6718655;88;20208;-77
2023/07/18 10:02:28;;;;;;;1999.90;999.90;;;;;;;;;;6718730;88;20192;-78
2023/07/18 10:12:34;;;;;;;1999.90;999.90;;;;;;;;;;6736938;88;20490;-78
2023/07/18 10:22:36;;;;;;;1999.90;999.90;;;;;;;;;;6737283;88;20226;-78
2023/07/18 10:32:38;;;;;;;1999.90;999.90;;;;;;;;;;6726424;88;20201;-78
2023/07/18 10:42:43;;;;;;;1999.90;999.90;;;;;;;;;;6729322;88;20868;-78
2023/07/18 10:52:45;;;;;;;1999.90;999.90;;;;;;;;;;6739242;88;20718;-78
2023/07/18 11:02:46;;;;;;;1999.90;999.90;;;;;;;;;;6737192;88;20339;-78
2023/07/18 11:12:47;;;;;;;1999.90;999.90;;;;;;;;;;6735689;88;20234;-78
2023/07/18 11:22:50;;;;;;;1999.90;999.90;;;;;;;;;;6723854;88;20234;-77
2023/07/18 11:32:51;;;;;;;1999.90;999.90;;;;;;;;;;6734088;88;20239;-79
2023/07/18 11:42:53;;;;;;;1999.90;999.90;;;;;;;;;;6743873;88;20199;-79
2023/07/18 11:52:54;;;;;;;1999.90;999.90;;;;;;;;;;6741709;88;20685;-79
2023/07/18 12:02:55;;;;;;;1999.90;999.90;;;;;;;;;;6740083;88;20191;-78
2023/07/18 12:12:56;;;;;;;1999.90;999.90;;;;;;;;;;6746553;88;20185;-78
2023/07/18 12:22:59;;;;;;;1999.90;999.90;;;;;;;;;;6737949;88;20330;-78
2023/07/18 12:33:00;;;;;;;1999.90;999.90;;;;;;;;;;6735288;88;20280;-77
2023/07/18 12:43:01;;;;;;;1999.90;999.90;;;;;;;;;;6745866;88;20214;-78
2023/07/18 12:53:02;;;;;;;1999.90;999.90;;;;;;;;;;6734405;88;20229;-77
2023/07/18 13:13:07;;;;;;;1999.90;999.90;;;;;;;;;;6757794;88;20303;-79
2023/07/18 13:23:08;;;;;;;1999.90;999.90;;;;;;;;;;6756646;88;20278;-80
2023/07/18 13:33:09;;;;;;;1999.90;999.90;;;;;;;;;;6755710;88;20198;-79
2023/07/18 13:43:10;;;;;;;1999.90;999.90;;;;;;;;;;6754120;88;20201;-78
2023/07/18 13:53:11;;;;;;;;;;;;;;;;;;6752432;88;20221;-81
2023/07/18 14:03:12;;;;;;;1999.90;999.90;;;;;;;;;;6754153;88;20039;-80
2023/07/18 14:13:13;;;;;;;1999.90;999.90;;;;;;;;;;6756346;88;20198;-79
2023/07/18 14:23:14;;;;;;;;;;;;;;;;;;6755145;88;20190;-79
2023/07/18 14:33:16;;;;;;;1999.90;999.90;;;;;;;;;;6750752;88;20090;-80
2023/07/18 14:43:37;;;;;;;1999.90;999.90;;;;;;;;;;6751938;88;20212;-79
2023/07/18 14:53:38;;;;;;;1999.90;999.90;;;;;;;;;;6754372;88;20661;-78
2023/07/18 15:03:39;;;;;;;1999.90;999.90;;;;;;;;;;6759927;88;20209;-80
2023/07/18 15:13:40;;;;;;;1999.90;999.90;;;;;;;;;;6754298;88;20193;-79
2023/07/18 15:23:41;;;;;;;1999.90;999.90;;;;;;;;;;6757275;88;20223;-80
2023/07/18 15:33:42;;;;;;;1999.90;999.90;;;;;;;;;;6756525;88;20227;-80
2023/07/18 15:43:43;;;;;;;1999.90;999.90;;;;;;;;;;6753605;88;20522;-80
2023/07/18 15:53:44;;;;;;;1999.90;999.90;;;;;;;;;;6755151;88;20210;-78
2023/07/18 16:03:45;;;;;;;1999.90;999.90;;;;;;;;;;6753196;88;20192;-79
2023/07/18 16:13:47;;;;;;;1999.90;999.90;;;;;;;;;;6751554;88;20583;-79
2023/07/18 16:23:48;;;;;;;1999.90;999.90;;;;;;;;;;6755664;88;20193;-79
2023/07/18 16:33:50;;;;;;;1999.90;999.90;;;;;;;;;;6761693;88;20162;-78
2023/07/18 16:43:51;;;;;;;1999.90;999.90;;;;;;;;;;6758427;88;20222;-78
2023/07/18 16:53:52;;;;;;;1999.90;999.90;;;;;;;;;;6756017;88;20693;-80
2023/07/18 17:03:57;;;;;;;1999.90;999.90;;;;;;;;;;6760593;88;20213;-80
2023/07/18 17:13:58;;;;;;;1999.90;999.90;;;;;;;;;;6762299;88;20666;-79
2023/07/18 17:23:59;;;;;;;1999.90;999.90;;;;;;;;;;6760753;88;20180;-80
2023/07/18 17:34:01;;;;;;;1999.90;999.90;;;;;;;;;;6761058;88;20799;-80
2023/07/18 17:44:03;;;;;;;1999.90;999.90;;;;;;;;;;6758415;88;20247;-78
2023/07/18 17:54:04;;;;;;;1999.90;999.90;;;;;;;;;;6760141;88;20189;-80
2023/07/18 18:04:06;;;;;;;1999.90;999.90;;;;;;;;;;6761231;88;20189;-80
2023/07/18 18:14:07;;;;;;;1999.90;999.90;;;;;;;;;;6762823;88;20213;-79
2023/07/18 18:24:08;;;;;;;1999.90;999.90;;;;;;;;;;6758137;88;20328;-78
2023/07/18 18:34:09;;;;;;;1999.90;999.90;;;;;;;;;;6762180;88;20195;-78
2023/07/18 18:44:10;;;;;;;1999.90;999.90;;;;;;;;;;6740781;88;20917;-79
2023/07/18 18:54:12;;;;;;;1999.90;999.90;;;;;;;;;;6761198;88;20193;-78
2023/07/18 19:04:13;;;;;;;1999.90;999.90;;;;;;;;;;6764064;88;20172;-78
2023/07/18 19:14:14;;;;;;;1999.90;999.90;;;;;;;;;;6741342;88;20183;-79
2023/07/18 19:24:15;;;;;;;1999.90;999.90;;;;;;;;;;6714173;88;20255;-79
2023/07/18 19:34:16;;;;;;;1999.90;999.90;;;;;;;;;;6680058;88;20191;-78
2023/07/18 19:44:20;;;;;;;1999.90;999.90;;;;;;;;;;6753211;88;20212;-79
2023/07/18 19:54:21;;;;;;;1999.90;999.90;;;;;;;;;;6766186;88;20180;-78
2023/07/18 20:04:22;;;;;;;1999.90;999.90;;;;;;;;;;6762514;88;20185;-79
2023/07/18 20:14:23;;;;;;;1999.90;999.90;;;;;;;;;;6766808;88;20326;-81
2023/07/18 20:24:24;;;;;;;1999.90;999.90;;;;;;;;;;6764349;88;20232;-80
2023/07/18 20:34:25;;;;;;;1999.90;999.90;;;;;;;;;;6767448;88;20161;-81
2023/07/18 20:44:26;;;;;;;1999.90;999.90;;;;;;;;;;6763200;88;20265;-80
2023/07/18 20:54:28;;;;;;;1999.90;999.90;;;;;;;;;;6763081;88;20228;-79
2023/07/18 21:04:29;;;;;;;1999.90;999.90;;;;;;;;;;6764994;88;20201;-80
2023/07/18 21:14:30;;;;;;;1999.90;999.90;;;;;;;;;;6762408;88;20367;-80
2023/07/18 21:24:31;;;;;;;1999.90;999.90;;;;;;;;;;6762519;88;20187;-80
2023/07/18 21:34:33;;;;;;;1999.90;999.90;;;;;;;;;;6758781;88;20189;-81
2023/07/18 21:44:35;;;;;;;1999.90;999.90;;;;;;;;;;6760300;88;20173;-80
2023/07/18 21:54:36;;;;;;;1999.90;999.90;;;;;;;;;;6762469;88;20186;-82
2023/07/18 22:04:37;;;;;;;1999.90;999.90;;;;;;;;;;6757157;88;20189;-80
2023/07/18 22:14:38;;;;;;;1999.90;999.90;;;;;;;;;;6761884;88;20240;-80
2023/07/18 22:24:39;;;;;;;1999.90;999.90;;;;;;;;;;6759641;88;20231;-78
2023/07/18 22:34:40;;;;;;;1999.90;999.90;;;;;;;;;;6762252;88;20231;-80
2023/07/18 22:44:42;;;;;;;1999.90;999.90;;;;;;;;;;6758826;88;20182;-80
2023/07/18 22:54:43;;;;;;;1999.90;999.90;;;;;;;;;;6762486;88;20213;-81
2023/07/18 23:04:44;;;;;;;1999.90;999.90;;;;;;;;;;6760879;88;20322;-80
2023/07/18 23:14:45;;;;;;;1999.90;999.90;;;;;;;;;;6764254;88;20170;-79
2023/07/18 23:24:47;;;;;;;1999.90;999.90;;;;;;;;;;6755487;88;20211;-80
2023/07/18 23:34:48;;;;;;;1999.90;999.90;;;;;;;;;;6751890;88;20355;-79
2023/07/18 23:44:49;;;;;;;1999.90;999.90;;;;;;;;;;6752565;88;20226;-79
2023/07/18 23:54:50;;;;;;;1999.90;999.90;;;;;;;;;;6751330;88;20185;-80
